Terminal Aerodrome Forecast
Issued by NWS North Platte, NE

Home | Current Version | Previous Version | Graphics & Text | Print | Product List | Glossary On
Versions: 1 2 3 4 5 6 7 8 9 10 11 12 13
549
FTUS43 KLBF 191127
TAFVTN
TAF
KVTN 191127Z 1912/2012 21007KT P6SM FEW250
     FM191500 20012KT P6SM SKC
     FM191900 20015G22KT P6SM SKC
     FM200000 18013KT P6SM FEW250
     FM200300 18013KT P6SM SCT250 WS015/20050KT
     FM200900 19012KT P6SM SCT250 WS015/21040KT=

USA.gov is the U.S. government's official web portal to all federal, state and local government web resources and services.